Time;durP1;ratioP1;P1;durP2;ratioP2;P2;SDS_P1;SDS_P2;PMS_P1;PMS_P2;Temp;Humidity;BMP_temperature;BMP_pressure;BME280_temperature;BME280_humidity;BME280_pressure;Samples;Min_cycle;Max_cycle;Signal;HPM_P1;HPM_P2
2022/07/31 00:00:22;;;;;;;3.03;1.90;;;17.00;99.90;;;;;;5101482;28;20633;-82
2022/07/31 00:02:48;;;;;;;3.70;2.10;;;;;;;;;;5102965;28;20249;-81
2022/07/31 00:05:14;;;;;;;3.97;1.97;;;;;;;;;;5102891;28;20176;-82
2022/07/31 00:07:40;;;;;;;6.37;2.23;;;16.80;99.90;;;;;;5102704;28;20226;-81
2022/07/31 00:10:06;;;;;;;3.60;2.10;;;16.50;99.90;;;;;;5102504;28;20172;-82
2022/07/31 00:12:33;;;;;;;3.43;1.80;;;;;;;;;;5102997;28;20203;-82
2022/07/31 00:15:00;;;;;;;2.63;2.10;;;16.70;99.90;;;;;;5101259;28;20177;-81
2022/07/31 00:17:26;;;;;;;2.00;1.80;;;16.50;99.90;;;;;;5101480;28;20200;-82
2022/07/31 00:19:53;;;;;;;2.73;2.40;;;;;;;;;;5102888;28;20655;-82
2022/07/31 00:22:19;;;;;;;3.77;2.00;;;;;;;;;;5101015;28;20620;-82
2022/07/31 00:24:44;;;;;;;2.80;2.00;;;16.30;99.90;;;;;;5101633;28;20191;-82
2022/07/31 00:27:10;;;;;;;2.83;1.70;;;;;;;;;;5100843;28;20669;-81
2022/07/31 00:29:37;;;;;;;3.57;2.13;;;16.50;99.90;;;;;;5101148;28;20207;-82
2022/07/31 00:32:03;;;;;;;2.10;1.90;;;16.60;99.90;;;;;;5103024;28;20225;-82
2022/07/31 00:34:29;;;;;;;6.90;2.10;;;;;;;;;;5102527;28;20223;-82
2022/07/31 00:36:54;;;;;;;2.50;2.10;;;16.40;99.90;;;;;;5102578;28;20230;-82
2022/07/31 00:39:20;;;;;;;5.03;2.13;;;16.40;99.90;;;;;;5102192;28;20195;-82
2022/07/31 00:41:48;;;;;;;2.30;2.00;;;;;;;;;;5101920;28;20205;-82
2022/07/31 00:44:14;;;;;;;2.33;2.00;;;16.40;99.90;;;;;;5115317;28;20177;-81
2022/07/31 00:46:40;;;;;;;2.30;2.10;;;16.40;99.90;;;;;;5115247;28;20222;-81
2022/07/31 00:49:08;;;;;;;2.43;1.83;;;16.20;99.90;;;;;;5110901;28;20175;-81
2022/07/31 00:51:35;;;;;;;2.90;2.10;;;16.30;99.90;;;;;;5102439;28;20173;-82
2022/07/31 00:54:00;;;;;;;3.47;2.10;;;16.30;99.90;;;;;;5101790;28;20168;-82
2022/07/31 00:56:26;;;;;;;2.30;2.00;;;;;;;;;;5102058;28;20657;-82
2022/07/31 00:58:54;;;;;;;2.27;2.00;;;16.50;99.90;;;;;;5101032;28;20251;-82
2022/07/31 01:01:20;;;;;;;4.00;2.40;;;16.20;99.90;;;;;;5100175;28;20168;-82
2022/07/31 01:03:46;;;;;;;2.30;2.03;;;16.20;99.90;;;;;;5100753;28;20573;-81
2022/07/31 01:06:12;;;;;;;2.33;2.10;;;16.20;99.90;;;;;;5100464;28;20208;-81
2022/07/31 01:08:38;;;;;;;4.00;2.10;;;;;;;;;;5101602;28;20192;-82
2022/07/31 01:11:21;;;;;;;5.10;2.23;;;16.20;99.90;;;;;;5101421;28;20667;-82
2022/07/31 01:13:55;;;;;;;2.37;2.07;;;16.20;99.90;;;;;;5102227;28;20248;-82
2022/07/31 01:16:25;;;;;;;2.47;2.10;;;16.10;99.90;;;;;;5102181;28;20694;-82
2022/07/31 01:18:54;;;;;;;2.30;2.10;;;16.10;99.90;;;;;;5102072;28;20168;-82
2022/07/31 01:21:33;;;;;;;3.30;2.30;;;16.10;99.90;;;;;;5101119;28;20173;-82
2022/07/31 01:24:24;;;;;;;3.63;1.93;;;16.10;99.90;;;;;;5106074;28;20164;-82
2022/07/31 01:26:57;;;;;;;5.13;3.70;;;16.10;99.90;;;;;;5102141;28;20189;-82
2022/07/31 01:29:29;;;;;;;2.63;2.43;;;16.00;99.90;;;;;;5100817;28;20164;-82
2022/07/31 01:32:25;;;;;;;2.37;2.13;;;16.00;99.90;;;;;;5100987;28;20173;-82
2022/07/31 01:35:05;;;;;;;4.40;2.20;;;16.00;99.90;;;;;;5097288;28;20218;-82
2022/07/31 01:37:35;;;;;;;4.50;2.10;;;16.00;99.90;;;;;;5100484;28;20188;-82
2022/07/31 01:40:26;;;;;;;2.27;2.03;;;16.00;99.90;;;;;;5100922;28;20665;-82
2022/07/31 01:43:01;;;;;;;2.97;2.23;;;15.90;99.90;;;;;;5087592;28;20220;-82
2022/07/31 01:45:29;;;;;;;2.87;2.20;;;16.00;99.90;;;;;;5098365;28;20220;-83
2022/07/31 01:47:56;;;;;;;3.70;2.20;;;16.00;99.90;;;;;;5099192;28;20172;-82
2022/07/31 01:50:24;;;;;;;5.40;2.23;;;15.90;99.90;;;;;;5100611;28;20176;-82
2022/07/31 01:52:51;;;;;;;2.50;2.30;;;15.90;99.90;;;;;;5098551;28;20183;-82
2022/07/31 01:55:18;;;;;;;4.00;2.30;;;15.90;99.90;;;;;;5100689;28;20176;-81
2022/07/31 01:57:45;;;;;;;3.47;2.20;;;16.00;99.90;;;;;;5099093;28;20196;-82
2022/07/31 02:00:12;;;;;;;3.37;2.50;;;15.90;99.90;;;;;;5100718;28;20176;-83
2022/07/31 02:02:39;;;;;;;2.47;2.27;;;15.90;99.90;;;;;;5100775;28;20286;-82
2022/07/31 02:05:06;;;;;;;4.47;2.50;;;15.90;99.90;;;;;;5099691;28;20176;-82
2022/07/31 02:07:40;;;;;;;2.77;2.20;;;15.80;99.90;;;;;;5098956;28;20210;-82
2022/07/31 02:10:13;;;;;;;3.43;2.13;;;15.90;99.90;;;;;;5099859;28;20603;-82
2022/07/31 02:12:40;;;;;;;2.57;2.37;;;15.90;99.90;;;;;;5100450;28;20176;-82
2022/07/31 02:15:08;;;;;;;6.13;2.30;;;15.90;99.90;;;;;;5101499;28;20200;-82
2022/07/31 02:17:36;;;;;;;2.30;2.10;;;15.80;99.90;;;;;;5100331;28;20223;-82
2022/07/31 02:20:05;;;;;;;2.77;2.23;;;15.80;99.90;;;;;;5107952;28;20204;-81
2022/07/31 02:22:31;;;;;;;3.07;2.60;;;15.80;99.90;;;;;;5114217;28;20192;-81
2022/07/31 02:24:58;;;;;;;6.77;2.47;;;15.80;99.90;;;;;;5109687;28;20247;-82
2022/07/31 02:27:25;;;;;;;2.63;2.37;;;15.70;99.90;;;;;;5100004;28;20195;-81
2022/07/31 02:29:52;;;;;;;2.67;2.40;;;15.70;99.90;;;;;;5099840;28;20206;-82
2022/07/31 02:32:20;;;;;;;2.27;1.90;;;15.70;99.90;;;;;;5098612;28;20176;-81
2022/07/31 02:34:46;;;;;;;2.90;2.00;;;15.70;99.90;;;;;;5099722;28;20172;-82
2022/07/31 02:37:13;;;;;;;4.67;2.50;;;15.70;99.90;;;;;;5098474;28;20208;-82
2022/07/31 02:39:40;;;;;;;3.70;2.53;;;15.70;99.90;;;;;;5099276;28;20214;-82
2022/07/31 02:42:07;;;;;;;2.87;2.00;;;15.70;99.90;;;;;;5099890;28;20215;-82
2022/07/31 02:44:33;;;;;;;2.37;2.00;;;15.70;99.90;;;;;;5098528;28;20251;-82
2022/07/31 02:47:01;;;;;;;2.50;2.30;;;15.70;99.90;;;;;;5099477;28;20186;-82
2022/07/31 02:49:28;;;;;;;3.27;2.20;;;15.70;99.90;;;;;;5099546;28;20164;-82
2022/07/31 02:51:55;;;;;;;2.40;2.20;;;15.70;99.90;;;;;;5099957;28;20556;-82
2022/07/31 02:54:23;;;;;;;3.40;2.30;;;15.60;99.90;;;;;;5099013;28;20184;-82
2022/07/31 02:56:50;;;;;;;2.97;2.37;;;15.60;99.90;;;;;;5104521;28;20203;-82
2022/07/31 02:59:16;;;;;;;2.30;2.10;;;15.60;99.90;;;;;;5104640;28;20695;-82
2022/07/31 03:01:42;;;;;;;2.30;2.03;;;15.60;99.90;;;;;;5102638;28;20203;-82
2022/07/31 03:04:09;;;;;;;3.03;2.23;;;15.60;99.90;;;;;;5102586;28;20191;-82
2022/07/31 03:06:35;;;;;;;4.37;2.27;;;15.60;99.90;;;;;;5102353;28;20286;-82
2022/07/31 03:09:00;;;;;;;2.70;2.30;;;15.60;99.90;;;;;;5102142;28;20184;-82
2022/07/31 03:11:27;;;;;;;3.93;2.47;;;;;;;;;;5102955;28;20169;-82
2022/07/31 03:13:54;;;;;;;2.83;2.23;;;15.60;99.90;;;;;;5101981;28;20177;-83
2022/07/31 03:16:22;;;;;;;4.53;2.20;;;15.50;99.90;;;;;;5103649;28;20192;-82
2022/07/31 03:18:49;;;;;;;3.97;2.30;;;15.50;99.90;;;;;;5104446;28;20543;-82
2022/07/31 03:21:16;;;;;;;2.50;2.30;;;15.60;99.90;;;;;;5103547;28;20622;-82
2022/07/31 03:23:41;;;;;;;2.73;2.53;;;15.50;99.90;;;;;;5102860;28;20200;-82
2022/07/31 03:26:08;;;;;;;7.13;2.30;;;;;;;;;;5101503;28;20195;-82
2022/07/31 03:28:34;;;;;;;3.73;2.40;;;;;;;;;;5103424;28;20176;-82
2022/07/31 03:31:00;;;;;;;2.87;2.50;;;15.40;99.90;;;;;;5103535;28;20236;-82
2022/07/31 03:33:26;;;;;;;4.63;2.40;;;15.40;99.90;;;;;;5102033;28;20683;-82
2022/07/31 03:35:52;;;;;;;3.47;2.47;;;15.40;99.90;;;;;;5101531;28;20200;-82
2022/07/31 03:38:19;;;;;;;4.33;2.40;;;;;;;;;;5101196;28;20249;-82
2022/07/31 03:40:45;;;;;;;2.77;2.40;;;15.40;99.90;;;;;;5101770;28;20244;-82
2022/07/31 03:43:12;;;;;;;2.73;2.40;;;15.40;99.90;;;;;;5101886;28;20207;-82
2022/07/31 03:45:38;;;;;;;5.47;2.50;;;15.50;99.90;;;;;;5103635;28;20255;-82
2022/07/31 03:48:07;;;;;;;4.27;2.70;;;15.50;99.90;;;;;;5102033;28;20215;-82
2022/07/31 03:50:36;;;;;;;5.63;3.07;;;15.50;99.90;;;;;;5101976;28;20269;-82
2022/07/31 03:53:06;;;;;;;5.73;2.60;;;15.50;99.90;;;;;;5102505;28;20181;-83
2022/07/31 03:55:35;;;;;;;3.20;2.30;;;15.60;99.90;;;;;;5102689;28;20239;-83
2022/07/31 03:58:06;;;;;;;4.77;2.37;;;15.60;99.90;;;;;;5111621;28;20197;-81
2022/07/31 04:00:32;;;;;;;4.00;2.63;;;15.60;99.90;;;;;;5118112;28;20186;-81
2022/07/31 04:03:05;;;;;;;3.33;2.17;;;15.60;99.90;;;;;;5109989;28;20206;-82
2022/07/31 04:05:31;;;;;;;2.80;2.30;;;15.70;99.90;;;;;;5101144;28;20161;-82
2022/07/31 04:07:58;;;;;;;3.03;2.53;;;;;;;;;;5102011;28;20184;-81
2022/07/31 04:10:24;;;;;;;3.00;2.50;;;15.50;99.90;;;;;;5101813;28;20265;-82
2022/07/31 04:12:49;;;;;;;4.37;2.30;;;15.50;99.90;;;;;;5101540;28;20184;-82
2022/07/31 04:15:15;;;;;;;4.20;2.20;;;15.50;99.90;;;;;;5105065;28;20175;-82
2022/07/31 04:17:41;;;;;;;3.43;2.20;;;;;;;;;;5101534;28;20381;-82
2022/07/31 04:20:08;;;;;;;3.67;2.40;;;15.40;99.90;;;;;;5101715;28;20179;-82
2022/07/31 04:22:33;;;;;;;3.70;2.50;;;15.50;99.90;;;;;;5103124;28;20204;-82
2022/07/31 04:24:59;;;;;;;4.57;2.33;;;;;;;;;;5102236;28;20240;-82
2022/07/31 04:27:25;;;;;;;5.20;2.60;;;15.50;99.90;;;;;;5101702;28;20243;-82
2022/07/31 04:29:51;;;;;;;2.33;2.13;;;15.50;99.90;;;;;;5105561;28;20172;-82
2022/07/31 04:32:17;;;;;;;7.53;2.43;;;15.60;99.90;;;;;;5102846;28;20204;-82
2022/07/31 04:34:42;;;;;;;5.80;2.43;;;15.70;99.90;;;;;;5102031;28;20172;-82
2022/07/31 04:37:08;;;;;;;8.20;2.40;;;15.80;99.90;;;;;;5101574;28;20696;-82
2022/07/31 04:39:34;;;;;;;2.90;2.20;;;;;;;;;;5100783;28;20193;-82
2022/07/31 04:42:00;;;;;;;2.53;2.20;;;16.00;99.90;;;;;;5101162;28;20193;-82
2022/07/31 04:44:26;;;;;;;2.30;2.00;;;16.10;99.90;;;;;;5100162;28;20180;-82
2022/07/31 04:46:51;;;;;;;2.53;2.10;;;16.20;99.90;;;;;;5100456;28;20197;-82
2022/07/31 04:49:17;;;;;;;3.87;2.07;;;;;;;;;;5100090;28;20176;-82
2022/07/31 04:51:43;;;;;;;2.80;2.20;;;16.30;99.90;;;;;;5101437;28;20680;-82
2022/07/31 04:54:09;;;;;;;2.43;2.10;;;16.40;99.90;;;;;;5101796;28;20164;-82
2022/07/31 04:56:36;;;;;;;2.57;1.93;;;16.50;99.90;;;;;;5099412;28;20203;-82
2022/07/31 04:59:08;;;;;;;2.10;1.90;;;16.50;99.90;;;;;;5099900;28;20711;-82
2022/07/31 05:01:34;;;;;;;3.77;2.40;;;16.50;99.90;;;;;;5101809;28;20532;-83
2022/07/31 05:04:00;;;;;;;2.87;2.10;;;16.60;99.90;;;;;;5098993;28;20252;-82
2022/07/31 05:06:43;;;;;;;5.40;2.40;;;16.70;99.90;;;;;;5099776;28;20245;-82
2022/07/31 05:09:14;;;;;;;3.50;2.13;;;16.70;99.90;;;;;;5101013;28;20154;-82
2022/07/31 05:11:41;;;;;;;2.57;1.90;;;16.70;99.90;;;;;;5099495;28;20179;-82
2022/07/31 05:14:09;;;;;;;2.13;1.93;;;16.70;99.90;;;;;;5099593;28;20172;-81
2022/07/31 05:16:36;;;;;;;2.37;1.93;;;16.80;99.90;;;;;;5099412;28;20196;-82
2022/07/31 05:19:02;;;;;;;3.63;1.67;;;16.80;99.90;;;;;;5098963;28;20272;-81
2022/07/31 05:21:31;;;;;;;3.10;2.27;;;16.80;99.90;;;;;;5100681;28;20168;-82
2022/07/31 05:23:58;;;;;;;2.37;2.17;;;16.90;99.90;;;;;;5101272;28;20225;-82
2022/07/31 05:26:25;;;;;;;2.93;2.10;;;16.90;99.90;;;;;;5100322;28;20196;-82
2022/07/31 05:28:52;;;;;;;2.20;2.00;;;16.90;99.90;;;;;;5101213;28;20179;-82
2022/07/31 05:31:19;;;;;;;5.17;2.10;;;16.90;99.90;;;;;;5101235;28;20179;-82
2022/07/31 05:33:46;;;;;;;3.23;2.20;;;16.90;99.90;;;;;;5114744;28;20177;-82
2022/07/31 05:36:12;;;;;;;3.57;2.20;;;17.00;99.90;;;;;;5110634;28;20189;-81
2022/07/31 05:38:38;;;;;;;2.20;2.00;;;17.00;99.90;;;;;;5116376;28;20194;-82
2022/07/31 05:41:12;;;;;;;4.20;2.10;;;17.00;99.90;;;;;;5021763;27;20556;-81
2022/07/31 05:43:38;;;;;;;2.83;2.10;;;17.00;99.90;;;;;;5011928;28;20186;-81
2022/07/31 05:46:05;;;;;;;3.93;2.33;;;17.10;99.90;;;;;;5012150;28;20671;-81
2022/07/31 05:48:31;;;;;;;5.00;2.30;;;17.10;99.90;;;;;;5013470;28;20580;-82
2022/07/31 05:50:57;;;;;;;6.83;1.97;;;17.10;99.90;;;;;;5011736;28;20182;-81
2022/07/31 05:53:23;;;;;;;2.93;2.07;;;;;;;;;;5013143;28;20230;-81
2022/07/31 05:55:49;;;;;;;4.20;2.33;;;17.20;99.90;;;;;;5011415;28;20224;-80
2022/07/31 05:58:17;;;;;;;2.63;1.97;;;17.30;99.90;;;;;;5013199;28;20179;-82
2022/07/31 06:00:45;;;;;;;3.20;1.87;;;17.30;99.90;;;;;;5012612;28;20241;-82
2022/07/31 06:03:12;;;;;;;2.50;2.27;;;17.30;99.90;;;;;;5014006;28;20171;-81
2022/07/31 06:05:38;;;;;;;4.83;2.43;;;17.30;99.90;;;;;;5016967;28;20176;-81
2022/07/31 06:08:04;;;;;;;2.40;2.20;;;17.40;99.90;;;;;;5011697;28;20513;-81
2022/07/31 06:10:30;;;;;;;4.50;2.40;;;17.40;99.90;;;;;;5010465;28;20189;-81
2022/07/31 06:12:56;;;;;;;2.90;2.20;;;;;;;;;;5010282;28;20182;-81
2022/07/31 06:15:22;;;;;;;4.73;2.10;;;17.50;99.90;;;;;;5011496;28;20205;-81
2022/07/31 06:17:48;;;;;;;3.07;2.10;;;17.60;99.90;;;;;;5011025;28;20187;-81
2022/07/31 06:20:13;;;;;;;5.03;2.70;;;17.60;99.90;;;;;;5011809;28;20199;-81
2022/07/31 06:22:44;;;;;;;2.57;2.30;;;17.60;99.90;;;;;;5012139;28;20167;-81
2022/07/31 06:25:11;;;;;;;3.43;2.17;;;17.70;99.90;;;;;;5009893;28;20175;-82
2022/07/31 06:27:37;;;;;;;4.67;2.23;;;17.80;99.90;;;;;;5009577;28;20195;-81
2022/07/31 06:30:04;;;;;;;4.70;2.10;;;17.90;99.90;;;;;;5010296;28;20213;-81
2022/07/31 06:32:31;;;;;;;6.13;2.40;;;17.90;99.90;;;;;;5009599;28;20190;-81
2022/07/31 06:34:56;;;;;;;3.47;2.30;;;17.90;99.90;;;;;;5009301;28;20274;-81
2022/07/31 06:37:22;;;;;;;5.63;2.40;;;;;;;;;;5011631;28;20286;-82
2022/07/31 06:39:48;;;;;;;2.47;2.00;;;18.00;99.90;;;;;;5011452;28;20211;-82
2022/07/31 06:42:21;;;;;;;2.70;2.20;;;18.10;99.90;;;;;;5012008;28;20178;-82
2022/07/31 06:44:47;;;;;;;2.77;2.00;;;18.10;99.90;;;;;;5012128;28;20200;-82
2022/07/31 06:47:14;;;;;;;3.50;1.90;;;18.20;99.90;;;;;;5010754;28;20200;-82
2022/07/31 06:49:40;;;;;;;3.10;1.90;;;18.30;99.90;;;;;;5010628;28;20669;-81
2022/07/31 06:52:06;;;;;;;2.73;2.10;;;18.30;99.90;;;;;;5000169;28;20276;-81
2022/07/31 06:54:32;;;;;;;3.33;1.90;;;18.40;99.90;;;;;;4998093;28;20183;-82
2022/07/31 06:56:58;;;;;;;3.00;2.33;;;18.50;99.90;;;;;;4998390;28;20564;-81
2022/07/31 06:59:24;;;;;;;3.00;2.30;;;18.50;99.90;;;;;;4998865;28;20296;-81
2022/07/31 07:01:49;;;;;;;6.57;2.73;;;18.60;99.90;;;;;;4999089;28;20170;-81
2022/07/31 07:04:15;;;;;;;2.13;2.00;;;;;;;;;;4997739;28;20698;-81
2022/07/31 07:06:41;;;;;;;2.17;2.00;;;18.60;99.90;;;;;;4997936;28;20196;-81
2022/07/31 07:09:07;;;;;;;4.70;2.50;;;18.60;99.90;;;;;;4997725;28;20172;-82
2022/07/31 07:11:33;;;;;;;4.37;1.90;;;;;;;;;;4997804;28;20186;-82
2022/07/31 07:13:58;;;;;;;4.90;2.10;;;18.70;99.90;;;;;;5005153;28;20200;-81
2022/07/31 07:16:24;;;;;;;2.83;2.20;;;;;;;;;;5011401;28;20200;-81
2022/07/31 07:18:50;;;;;;;2.67;1.90;;;18.90;99.90;;;;;;5006289;28;20188;-81
2022/07/31 07:21:16;;;;;;;4.07;2.23;;;;;;;;;;4996150;28;20214;-81
2022/07/31 07:23:42;;;;;;;3.67;2.03;;;19.20;99.90;;;;;;4997232;28;20535;-81
2022/07/31 07:26:08;;;;;;;5.33;1.90;;;19.60;99.90;;;;;;4996989;28;20196;-81
2022/07/31 07:28:34;;;;;;;4.33;2.30;;;19.80;99.90;;;;;;4997344;28;20180;-80
2022/07/31 07:31:02;;;;;;;4.77;2.13;;;19.80;99.90;;;;;;4996790;28;20186;-81
2022/07/31 07:33:29;;;;;;;2.00;1.60;;;;;;;;;;4996085;28;20184;-81
2022/07/31 07:35:54;;;;;;;3.77;1.80;;;20.20;99.90;;;;;;4997171;28;20204;-80
2022/07/31 07:38:20;;;;;;;3.87;1.67;;;20.20;99.90;;;;;;4998253;28;20587;-80
2022/07/31 07:40:46;;;;;;;2.23;1.80;;;20.50;99.90;;;;;;4995656;28;20215;-80
2022/07/31 07:43:12;;;;;;;4.30;2.00;;;20.70;99.90;;;;;;4994361;28;20548;-81
2022/07/31 07:45:38;;;;;;;2.00;1.77;;;21.00;99.90;;;;;;4995784;28;20190;-81
2022/07/31 07:48:05;;;;;;;1.70;1.40;;;20.90;99.90;;;;;;4995457;28;20176;-81
2022/07/31 07:50:31;;;;;;;3.03;1.77;;;21.00;99.90;;;;;;4996861;28;20187;-81
2022/07/31 07:52:56;;;;;;;4.80;1.70;;;21.20;99.90;;;;;;4997121;28;20244;-81
2022/07/31 07:55:22;;;;;;;2.97;1.70;;;21.30;99.90;;;;;;4997757;28;20179;-81
2022/07/31 07:57:48;;;;;;;2.73;1.90;;;21.40;99.90;;;;;;4997981;28;20690;-81
2022/07/31 08:00:15;;;;;;;2.90;1.50;;;21.50;99.90;;;;;;4996179;28;20210;-81
2022/07/31 08:02:41;;;;;;;1.70;1.60;;;21.50;99.90;;;;;;4996528;28;20225;-81
2022/07/31 08:05:07;;;;;;;4.90;1.43;;;21.50;99.90;;;;;;4998028;28;20249;-81
2022/07/31 08:07:36;;;;;;;2.30;1.70;;;21.50;99.90;;;;;;4995270;28;20388;-81
2022/07/31 08:10:06;;;;;;;4.60;1.60;;;21.60;99.90;;;;;;4995793;28;20197;-80
2022/07/31 08:12:33;;;;;;;2.00;1.50;;;21.60;99.90;;;;;;4995731;28;20585;-81
2022/07/31 08:14:59;;;;;;;2.20;1.43;;;21.70;99.90;;;;;;4996984;28;20187;-81
2022/07/31 08:17:24;;;;;;;3.93;1.73;;;21.70;99.90;;;;;;4995941;28;20200;-81
2022/07/31 08:19:50;;;;;;;2.03;1.60;;;21.80;99.90;;;;;;4995122;28;20206;-81
2022/07/31 08:22:17;;;;;;;3.97;1.60;;;21.80;99.90;;;;;;4995037;28;20198;-81
2022/07/31 08:24:42;;;;;;;3.20;1.80;;;21.90;99.90;;;;;;4994299;28;20194;-81
2022/07/31 08:27:23;;;;;;;1.73;1.30;;;21.90;99.90;;;;;;4995851;28;20554;-81
2022/07/31 08:29:51;;;;;;;2.07;1.57;;;22.00;99.90;;;;;;4994645;28;20178;-81
2022/07/31 08:32:16;;;;;;;3.43;1.50;;;22.00;99.90;;;;;;4996500;28;20176;-81
2022/07/31 08:34:42;;;;;;;3.43;1.70;;;22.20;99.90;;;;;;4994439;28;20546;-81
2022/07/31 08:37:08;;;;;;;2.97;1.80;;;22.50;99.90;;;;;;4995943;28;20233;-81
2022/07/31 08:39:34;;;;;;;3.10;1.67;;;23.00;99.90;;;;;;4994431;28;20221;-81
2022/07/31 08:42:06;;;;;;;1.70;1.60;;;23.00;99.90;;;;;;4994357;28;20182;-81
2022/07/31 08:44:35;;;;;;;5.00;1.60;;;23.10;99.90;;;;;;4997404;28;20535;-81
2022/07/31 08:47:02;;;;;;;2.37;1.73;;;23.20;99.90;;;;;;4996783;28;20193;-82
2022/07/31 08:49:30;;;;;;;1.60;1.40;;;23.20;99.90;;;;;;4997488;28;20179;-81
2022/07/31 08:51:58;;;;;;;2.57;1.70;;;23.20;99.90;;;;;;5002588;28;20192;-80
2022/07/31 08:54:26;;;;;;;2.13;1.40;;;23.30;99.90;;;;;;5008972;28;20233;-81
2022/07/31 08:56:52;;;;;;;4.73;1.37;;;23.70;99.90;;;;;;5006863;28;20220;-82
2022/07/31 08:59:18;;;;;;;2.73;1.30;;;24.00;99.90;;;;;;4997571;28;20198;-81
2022/07/31 09:01:44;;;;;;;2.37;1.20;;;24.30;99.90;;;;;;4996174;28;20210;-81
2022/07/31 09:04:10;;;;;;;1.60;1.50;;;24.30;99.90;;;;;;4995053;28;20179;-81
2022/07/31 09:06:36;;;;;;;2.37;1.40;;;24.10;99.90;;;;;;4996443;28;20190;-81
2022/07/31 09:09:03;;;;;;;1.60;1.30;;;24.10;99.90;;;;;;4998518;28;20557;-81
2022/07/31 09:11:29;;;;;;;1.80;1.20;;;24.40;99.90;;;;;;4997332;28;20521;-81
2022/07/31 09:14:03;;;;;;;2.10;1.73;;;24.80;99.90;;;;;;4998430;28;20313;-82
2022/07/31 09:16:29;;;;;;;3.73;1.20;;;24.90;99.90;;;;;;4999548;28;20194;-81
2022/07/31 09:18:55;;;;;;;1.90;1.73;;;24.60;99.90;;;;;;4999082;28;20177;-81
2022/07/31 09:21:21;;;;;;;7.33;1.90;;;24.30;99.90;;;;;;4999318;28;20580;-82
2022/07/31 09:23:47;;;;;;;3.53;1.63;;;24.20;99.90;;;;;;4998215;28;20641;-81
2022/07/31 09:26:13;;;;;;;3.90;1.60;;;24.10;99.90;;;;;;4997657;28;20222;-81
2022/07/31 09:28:41;;;;;;;1.60;1.23;;;23.90;99.90;;;;;;4996087;28;20182;-81
2022/07/31 09:31:08;;;;;;;2.00;1.43;;;23.60;99.90;;;;;;4997666;28;20180;-81
2022/07/31 09:33:38;;;;;;;1.97;1.67;;;23.60;99.90;;;;;;4995893;28;20184;-81
2022/07/31 09:36:05;;;;;;;2.80;1.60;;;23.50;99.90;;;;;;4995901;28;20207;-81
2022/07/31 09:38:35;;;;;;;2.27;1.53;;;23.50;99.90;;;;;;4997904;28;20178;-81
2022/07/31 09:41:17;;;;;;;1.83;1.40;;;23.50;99.90;;;;;;4996076;28;20208;-81
2022/07/31 09:43:52;;;;;;;3.77;2.07;;;23.50;99.90;;;;;;4997530;28;20519;-82
2022/07/31 09:46:18;;;;;;;1.70;1.60;;;23.70;99.90;;;;;;4996871;28;20190;-81
2022/07/31 09:48:54;;;;;;;4.23;1.53;;;24.00;99.90;;;;;;4997271;28;20180;-81
2022/07/31 09:51:21;;;;;;;2.73;1.60;;;24.70;99.90;;;;;;4993837;28;20184;-82
2022/07/31 09:53:52;;;;;;;3.33;1.40;;;25.30;99.90;;;;;;4994377;28;20190;-81
2022/07/31 09:56:29;;;;;;;3.67;1.50;;;25.80;99.90;;;;;;4994931;28;20196;-81
2022/07/31 09:58:55;;;;;;;2.50;1.50;;;26.00;99.90;;;;;;4994141;28;20558;-81
2022/07/31 10:01:22;;;;;;;1.93;1.73;;;25.90;99.90;;;;;;4994302;28;20196;-81
2022/07/31 10:03:50;;;;;;;1.30;1.10;;;25.70;99.90;;;;;;4994616;28;20179;-81
2022/07/31 10:06:18;;;;;;;1.73;1.40;;;25.60;99.90;;;;;;4995229;28;20690;-81
2022/07/31 10:08:45;;;;;;;8.40;2.00;;;25.30;99.90;;;;;;4995596;28;20183;-81
2022/07/31 10:11:12;;;;;;;2.87;1.33;;;25.20;99.90;;;;;;4995523;28;20184;-80
2022/07/31 10:13:44;;;;;;;2.47;1.53;;;25.20;99.90;;;;;;4996307;28;20172;-82
2022/07/31 10:16:10;;;;;;;2.47;1.33;;;25.50;99.90;;;;;;4993748;28;20207;-81
2022/07/31 10:18:40;;;;;;;1.60;1.37;;;25.90;99.90;;;;;;4993507;28;20184;-82
2022/07/31 10:21:07;;;;;;;2.90;1.43;;;25.90;99.90;;;;;;4995691;28;20206;-81
2022/07/31 10:23:35;;;;;;;4.00;1.60;;;26.20;99.90;;;;;;4995417;28;20171;-81
2022/07/31 10:26:01;;;;;;;2.27;1.33;;;26.10;99.90;;;;;;4995515;28;20289;-81
2022/07/31 10:28:28;;;;;;;1.23;1.13;;;25.60;99.90;;;;;;5006922;28;20183;-81
2022/07/31 10:30:55;;;;;;;3.00;1.63;;;25.30;99.90;;;;;;5007657;28;20172;-82
2022/07/31 10:33:21;;;;;;;2.30;1.50;;;25.00;99.90;;;;;;4999400;28;20631;-82
2022/07/31 10:36:07;;;;;;;3.00;2.20;;;24.80;99.90;;;;;;4997498;28;20176;-82
2022/07/31 10:38:39;;;;;;;2.73;1.50;;;24.80;99.90;;;;;;4999136;28;20183;-81
2022/07/31 10:41:30;;;;;;;4.27;1.30;;;24.80;99.90;;;;;;4998237;28;20694;-81
2022/07/31 10:43:59;;;;;;;2.17;1.40;;;24.90;99.90;;;;;;4998674;28;20177;-81
2022/07/31 10:46:27;;;;;;;2.00;1.10;;;25.10;99.90;;;;;;5001417;28;20201;-81
2022/07/31 10:48:53;;;;;;;2.93;1.93;;;25.50;99.90;;;;;;4995901;28;20277;-81
2022/07/31 10:51:21;;;;;;;2.33;1.20;;;25.50;99.90;;;;;;4997353;28;20239;-80
2022/07/31 10:54:00;;;;;;;1.37;1.20;;;25.50;99.90;;;;;;4997280;28;20177;-81
2022/07/31 10:56:27;;;;;;;2.60;1.40;;;25.50;99.90;;;;;;4997390;28;20203;-81
2022/07/31 10:58:56;;;;;;;2.20;1.40;;;25.80;99.90;;;;;;4996506;28;20182;-81
2022/07/31 11:01:22;;;;;;;1.23;1.00;;;26.60;99.90;;;;;;4998096;28;20205;-80
2022/07/31 11:03:52;;;;;;;2.00;1.43;;;28.10;98.80;;;;;;4997320;28;20691;-81
2022/07/31 11:06:20;;;;;;;1.30;1.10;;;28.10;99.90;;;;;;4997370;28;20200;-81
2022/07/31 11:08:50;;;;;;;3.97;0.97;;;28.10;97.00;;;;;;4999073;28;20168;-81
2022/07/31 11:11:17;;;;;;;1.23;1.00;;;28.00;96.00;;;;;;4998509;28;20188;-81
2022/07/31 11:13:51;;;;;;;3.00;1.47;;;27.20;94.60;;;;;;4998476;28;20172;-81
2022/07/31 11:16:18;;;;;;;1.90;1.03;;;26.50;97.40;;;;;;4998450;28;20197;-82
2022/07/31 11:18:55;;;;;;;1.67;1.20;;;26.00;96.40;;;;;;4997821;28;20180;-80
2022/07/31 11:21:34;;;;;;;2.57;2.33;;;25.90;99.10;;;;;;5000283;28;20205;-81
2022/07/31 11:24:00;;;;;;;3.67;3.37;;;26.30;99.90;;;;;;4999088;28;20583;-80
2022/07/31 11:26:26;;;;;;;1.40;1.20;;;26.30;99.90;;;;;;5000175;28;20193;-81
2022/07/31 11:28:52;;;;;;;1.77;1.37;;;26.30;97.90;;;;;;4997993;28;20514;-81
2022/07/31 11:31:18;;;;;;;4.23;1.87;;;26.30;98.30;;;;;;4999960;28;20233;-81
2022/07/31 11:33:45;;;;;;;1.90;1.40;;;26.80;99.90;;;;;;4998158;28;20180;-81
2022/07/31 11:36:18;;;;;;;1.60;1.10;;;27.30;96.80;;;;;;4999977;28;20210;-81
2022/07/31 11:38:48;;;;;;;1.30;1.10;;;27.20;96.50;;;;;;4999077;28;20214;-81
2022/07/31 11:41:14;;;;;;;1.90;1.37;;;26.60;98.90;;;;;;5000169;28;20211;-81
2022/07/31 11:43:51;;;;;;;2.97;1.30;;;26.20;96.60;;;;;;5000634;28;20169;-82
2022/07/31 11:46:28;;;;;;;1.80;1.20;;;26.50;98.70;;;;;;4999006;28;20200;-81
2022/07/31 11:48:55;;;;;;;2.57;1.27;;;27.50;99.90;;;;;;4999016;28;20237;-81
2022/07/31 11:51:22;;;;;;;1.33;1.03;;;27.50;98.60;;;;;;4999876;28;20189;-81
2022/07/31 11:53:49;;;;;;;2.40;1.23;;;27.40;96.90;;;;;;4998759;28;20609;-81
2022/07/31 11:56:18;;;;;;;2.37;1.40;;;27.60;96.60;;;;;;5001277;28;20202;-81
2022/07/31 11:58:50;;;;;;;1.77;1.27;;;28.20;99.70;;;;;;5002008;28;20193;-80
2022/07/31 12:01:17;;;;;;;1.40;1.30;;;28.50;94.30;;;;;;5009545;28;20212;-80
2022/07/31 12:03:44;;;;;;;2.30;1.40;;;28.60;96.90;;;;;;5006568;28;20231;-81
2022/07/31 12:06:10;;;;;;;2.17;1.10;;;28.70;97.00;;;;;;4999437;28;20197;-81
2022/07/31 12:08:36;;;;;;;2.70;1.30;;;29.00;94.10;;;;;;4998996;28;20165;-81
2022/07/31 12:11:04;;;;;;;1.93;1.10;;;28.90;95.00;;;;;;4999564;28;20222;-81
2022/07/31 12:13:31;;;;;;;1.50;1.00;;;28.40;94.10;;;;;;4999459;28;20183;-81
2022/07/31 12:16:04;;;;;;;2.10;1.60;;;28.30;94.80;;;;;;4998881;28;20198;-82
2022/07/31 12:18:52;;;;;;;2.23;1.50;;;28.30;95.40;;;;;;5002830;28;20245;-81
2022/07/31 12:21:19;;;;;;;2.80;1.73;;;28.40;94.10;;;;;;4998766;28;20196;-81
2022/07/31 12:23:51;;;;;;;1.30;1.20;;;28.70;96.80;;;;;;4998179;28;20565;-80
2022/07/31 12:26:27;;;;;;;2.20;1.27;;;29.00;94.10;;;;;;4998224;28;20191;-81
2022/07/31 12:29:19;;;;;;;1.23;1.13;;;29.80;97.20;;;;;;4997596;28;20180;-81
2022/07/31 12:31:50;;;;;;;1.60;1.40;;;30.00;97.30;;;;;;4998232;28;20698;-81
2022/07/31 12:34:32;;;;;;;1.53;1.00;;;30.20;96.30;;;;;;4997661;28;20169;-81
2022/07/31 12:37:10;;;;;;;5.20;1.40;;;29.00;93.40;;;;;;4995994;28;20204;-80
2022/07/31 12:39:42;;;;;;;3.70;1.40;;;28.50;92.10;;;;;;4995877;28;20294;-81
2022/07/31 12:42:08;;;;;;;3.13;1.40;;;28.30;96.70;;;;;;4995781;28;20546;-80
2022/07/31 12:44:34;;;;;;;1.40;1.30;;;28.10;93.80;;;;;;4997564;28;20264;-80
2022/07/31 12:46:59;;;;;;;4.70;1.30;;;27.30;92.60;;;;;;4996498;28;20196;-81
2022/07/31 12:49:25;;;;;;;1.40;1.30;;;26.80;91.50;;;;;;4996947;28;20259;-81
2022/07/31 12:51:51;;;;;;;1.00;0.93;;;26.80;95.90;;;;;;4998311;28;20176;-80
2022/07/31 12:54:17;;;;;;;1.10;1.00;;;26.80;94.60;;;;;;4997187;28;20529;-80
2022/07/31 12:56:45;;;;;;;1.60;1.03;;;27.10;95.90;;;;;;4996439;28;20205;-81
2022/07/31 12:59:11;;;;;;;1.20;1.10;;;27.50;94.20;;;;;;4999089;28;20251;-81